sensor_id;sensor_type;location;lat;lon;timestamp;temperature;humidity
49253;DHT22;35103;47.952;-1.502;2022-10-16T00:00:18;16.00;82.50
49253;DHT22;35103;47.952;-1.502;2022-10-16T00:02:44;16.00;82.80
49253;DHT22;35103;47.952;-1.502;2022-10-16T00:05:09;16.00;82.80
49253;DHT22;35103;47.952;-1.502;2022-10-16T00:07:35;16.00;82.80
49253;DHT22;35103;47.952;-1.502;2022-10-16T00:10:01;16.00;82.70
49253;DHT22;35103;47.952;-1.502;2022-10-16T00:12:26;16.00;82.70
49253;DHT22;35103;47.952;-1.502;2022-10-16T00:14:52;16.00;82.80
49253;DHT22;35103;47.952;-1.502;2022-10-16T00:17:17;16.00;83.00
49253;DHT22;35103;47.952;-1.502;2022-10-16T00:19:43;16.00;83.00
49253;DHT22;35103;47.952;-1.502;2022-10-16T00:22:08;16.00;83.20
49253;DHT22;35103;47.952;-1.502;2022-10-16T00:24:34;16.00;83.40
49253;DHT22;35103;47.952;-1.502;2022-10-16T00:26:59;16.00;83.40
49253;DHT22;35103;47.952;-1.502;2022-10-16T00:29:25;16.00;83.10
49253;DHT22;35103;47.952;-1.502;2022-10-16T00:31:50;16.00;83.10
49253;DHT22;35103;47.952;-1.502;2022-10-16T00:34:16;16.00;83.10
49253;DHT22;35103;47.952;-1.502;2022-10-16T00:36:41;16.00;83.30
49253;DHT22;35103;47.952;-1.502;2022-10-16T00:39:07;16.00;83.10
49253;DHT22;35103;47.952;-1.502;2022-10-16T00:41:33;16.00;83.50
49253;DHT22;35103;47.952;-1.502;2022-10-16T00:44:00;16.00;83.50
49253;DHT22;35103;47.952;-1.502;2022-10-16T00:46:38;15.90;83.50
49253;DHT22;35103;47.952;-1.502;2022-10-16T00:49:10;16.00;83.50
49253;DHT22;35103;47.952;-1.502;2022-10-16T00:51:40;16.00;83.50
49253;DHT22;35103;47.952;-1.502;2022-10-16T00:54:12;15.90;83.50
49253;DHT22;35103;47.952;-1.502;2022-10-16T00:56:38;15.90;83.60
49253;DHT22;35103;47.952;-1.502;2022-10-16T00:59:07;15.90;83.40
49253;DHT22;35103;47.952;-1.502;2022-10-16T01:01:36;15.90;83.40
49253;DHT22;35103;47.952;-1.502;2022-10-16T01:04:02;15.90;83.40
49253;DHT22;35103;47.952;-1.502;2022-10-16T01:06:50;16.00;83.80
49253;DHT22;35103;47.952;-1.502;2022-10-16T01:17:52;16.00;83.60
49253;DHT22;35103;47.952;-1.502;2022-10-16T01:28:36;16.00;83.50
49253;DHT22;35103;47.952;-1.502;2022-10-16T01:31:04;16.00;83.70
49253;DHT22;35103;47.952;-1.502;2022-10-16T01:33:43;16.00;83.90
49253;DHT22;35103;47.952;-1.502;2022-10-16T01:36:21;16.00;83.80
49253;DHT22;35103;47.952;-1.502;2022-10-16T01:38:50;16.00;83.80
49253;DHT22;35103;47.952;-1.502;2022-10-16T01:41:25;16.00;83.80
49253;DHT22;35103;47.952;-1.502;2022-10-16T01:44:01;16.00;83.80
49253;DHT22;35103;47.952;-1.502;2022-10-16T01:46:28;16.00;83.60
49253;DHT22;35103;47.952;-1.502;2022-10-16T01:48:56;16.00;83.60
49253;DHT22;35103;47.952;-1.502;2022-10-16T01:51:23;15.90;83.70
49253;DHT22;35103;47.952;-1.502;2022-10-16T01:53:53;15.90;83.80
49253;DHT22;35103;47.952;-1.502;2022-10-16T01:56:21;15.90;83.80
49253;DHT22;35103;47.952;-1.502;2022-10-16T01:58:54;15.90;83.80
49253;DHT22;35103;47.952;-1.502;2022-10-16T02:01:23;15.90;83.80
49253;DHT22;35103;47.952;-1.502;2022-10-16T02:03:52;15.90;83.70
49253;DHT22;35103;47.952;-1.502;2022-10-16T02:06:18;15.90;83.80
49253;DHT22;35103;47.952;-1.502;2022-10-16T02:08:44;15.80;83.80
49253;DHT22;35103;47.952;-1.502;2022-10-16T02:11:10;15.80;83.90
49253;DHT22;35103;47.952;-1.502;2022-10-16T02:13:41;15.80;84.00
49253;DHT22;35103;47.952;-1.502;2022-10-16T02:16:10;15.80;84.10
49253;DHT22;35103;47.952;-1.502;2022-10-16T02:18:36;15.80;83.90
49253;DHT22;35103;47.952;-1.502;2022-10-16T02:24:15;15.80;83.90
49253;DHT22;35103;47.952;-1.502;2022-10-16T02:26:43;15.80;83.90
49253;DHT22;35103;47.952;-1.502;2022-10-16T02:29:13;15.80;83.70
49253;DHT22;35103;47.952;-1.502;2022-10-16T02:31:43;15.80;83.70
49253;DHT22;35103;47.952;-1.502;2022-10-16T02:34:11;15.70;83.90
49253;DHT22;35103;47.952;-1.502;2022-10-16T02:36:38;15.70;84.00
49253;DHT22;35103;47.952;-1.502;2022-10-16T02:39:04;15.60;84.10
49253;DHT22;35103;47.952;-1.502;2022-10-16T02:41:31;15.60;84.20
49253;DHT22;35103;47.952;-1.502;2022-10-16T02:43:57;15.60;84.30
49253;DHT22;35103;47.952;-1.502;2022-10-16T02:46:22;15.60;84.40
49253;DHT22;35103;47.952;-1.502;2022-10-16T02:48:48;15.60;84.30
49253;DHT22;35103;47.952;-1.502;2022-10-16T02:51:13;15.60;84.30
49253;DHT22;35103;47.952;-1.502;2022-10-16T02:53:39;15.60;84.30
49253;DHT22;35103;47.952;-1.502;2022-10-16T02:56:04;15.60;84.30
49253;DHT22;35103;47.952;-1.502;2022-10-16T02:58:30;15.60;84.30
49253;DHT22;35103;47.952;-1.502;2022-10-16T03:00:56;15.60;84.30
49253;DHT22;35103;47.952;-1.502;2022-10-16T03:03:21;15.60;84.30
49253;DHT22;35103;47.952;-1.502;2022-10-16T03:05:47;15.60;84.30
49253;DHT22;35103;47.952;-1.502;2022-10-16T03:08:13;15.60;84.40
49253;DHT22;35103;47.952;-1.502;2022-10-16T03:10:38;15.60;84.50
49253;DHT22;35103;47.952;-1.502;2022-10-16T03:13:04;15.60;84.60
49253;DHT22;35103;47.952;-1.502;2022-10-16T03:15:30;15.60;84.50
49253;DHT22;35103;47.952;-1.502;2022-10-16T03:17:58;15.60;84.50
49253;DHT22;35103;47.952;-1.502;2022-10-16T03:20:24;15.60;84.50
49253;DHT22;35103;47.952;-1.502;2022-10-16T03:22:49;15.60;84.60
49253;DHT22;35103;47.952;-1.502;2022-10-16T03:25:15;15.60;84.60
49253;DHT22;35103;47.952;-1.502;2022-10-16T03:27:40;15.60;84.70
49253;DHT22;35103;47.952;-1.502;2022-10-16T03:30:06;15.60;84.60
49253;DHT22;35103;47.952;-1.502;2022-10-16T03:32:32;15.60;84.60
49253;DHT22;35103;47.952;-1.502;2022-10-16T03:34:58;15.60;84.60
49253;DHT22;35103;47.952;-1.502;2022-10-16T03:37:23;15.60;84.60
49253;DHT22;35103;47.952;-1.502;2022-10-16T03:39:49;15.60;84.60
49253;DHT22;35103;47.952;-1.502;2022-10-16T03:42:15;15.60;84.70
49253;DHT22;35103;47.952;-1.502;2022-10-16T03:44:40;15.50;84.70
49253;DHT22;35103;47.952;-1.502;2022-10-16T03:47:06;15.50;84.80
49253;DHT22;35103;47.952;-1.502;2022-10-16T03:49:31;15.60;84.70
49253;DHT22;35103;47.952;-1.502;2022-10-16T03:51:57;15.50;84.80
49253;DHT22;35103;47.952;-1.502;2022-10-16T03:54:22;15.50;84.70
49253;DHT22;35103;47.952;-1.502;2022-10-16T03:56:48;15.60;84.70
49253;DHT22;35103;47.952;-1.502;2022-10-16T03:59:13;15.60;84.80
49253;DHT22;35103;47.952;-1.502;2022-10-16T04:01:39;15.60;84.80
49253;DHT22;35103;47.952;-1.502;2022-10-16T04:04:05;15.70;84.80
49253;DHT22;35103;47.952;-1.502;2022-10-16T04:06:30;15.70;84.80
49253;DHT22;35103;47.952;-1.502;2022-10-16T04:08:56;15.70;84.80
49253;DHT22;35103;47.952;-1.502;2022-10-16T04:11:21;15.70;84.80
49253;DHT22;35103;47.952;-1.502;2022-10-16T04:13:47;15.80;84.80
49253;DHT22;35103;47.952;-1.502;2022-10-16T04:16:13;15.70;84.80
49253;DHT22;35103;47.952;-1.502;2022-10-16T04:18:39;15.70;84.80
49253;DHT22;35103;47.952;-1.502;2022-10-16T04:21:06;15.80;84.80
49253;DHT22;35103;47.952;-1.502;2022-10-16T04:23:31;15.80;84.80
49253;DHT22;35103;47.952;-1.502;2022-10-16T04:25:57;15.80;84.80
49253;DHT22;35103;47.952;-1.502;2022-10-16T04:28:23;15.80;84.90
49253;DHT22;35103;47.952;-1.502;2022-10-16T04:30:48;15.80;84.90
49253;DHT22;35103;47.952;-1.502;2022-10-16T04:33:14;15.80;84.90
49253;DHT22;35103;47.952;-1.502;2022-10-16T04:35:39;15.80;84.90
49253;DHT22;35103;47.952;-1.502;2022-10-16T04:38:05;15.80;84.90
49253;DHT22;35103;47.952;-1.502;2022-10-16T04:40:30;15.80;85.00
49253;DHT22;35103;47.952;-1.502;2022-10-16T04:42:56;15.90;84.80
49253;DHT22;35103;47.952;-1.502;2022-10-16T04:45:21;15.80;85.00
49253;DHT22;35103;47.952;-1.502;2022-10-16T04:47:47;15.80;84.90
49253;DHT22;35103;47.952;-1.502;2022-10-16T04:50:12;15.80;85.00
49253;DHT22;35103;47.952;-1.502;2022-10-16T04:52:38;15.90;84.90
49253;DHT22;35103;47.952;-1.502;2022-10-16T04:55:04;15.90;85.00
49253;DHT22;35103;47.952;-1.502;2022-10-16T04:57:30;15.80;85.00
49253;DHT22;35103;47.952;-1.502;2022-10-16T04:59:55;15.80;85.10
49253;DHT22;35103;47.952;-1.502;2022-10-16T05:02:21;15.80;85.00
49253;DHT22;35103;47.952;-1.502;2022-10-16T05:04:47;15.80;85.00
49253;DHT22;35103;47.952;-1.502;2022-10-16T05:07:12;15.80;85.00
49253;DHT22;35103;47.952;-1.502;2022-10-16T05:09:38;15.90;85.10
49253;DHT22;35103;47.952;-1.502;2022-10-16T05:12:03;15.90;85.10
49253;DHT22;35103;47.952;-1.502;2022-10-16T05:14:29;15.90;85.20
49253;DHT22;35103;47.952;-1.502;2022-10-16T05:16:55;15.90;85.20
49253;DHT22;35103;47.952;-1.502;2022-10-16T05:19:20;15.90;85.20
49253;DHT22;35103;47.952;-1.502;2022-10-16T05:21:46;15.90;85.20
49253;DHT22;35103;47.952;-1.502;2022-10-16T05:24:12;15.90;85.20
49253;DHT22;35103;47.952;-1.502;2022-10-16T05:26:37;15.90;85.20
49253;DHT22;35103;47.952;-1.502;2022-10-16T05:29:03;15.90;85.30
49253;DHT22;35103;47.952;-1.502;2022-10-16T05:31:29;15.90;85.30
49253;DHT22;35103;47.952;-1.502;2022-10-16T05:34:01;15.90;85.30
49253;DHT22;35103;47.952;-1.502;2022-10-16T05:36:27;15.90;85.20
49253;DHT22;35103;47.952;-1.502;2022-10-16T05:38:53;15.90;85.20
49253;DHT22;35103;47.952;-1.502;2022-10-16T05:41:19;16.00;85.30
49253;DHT22;35103;47.952;-1.502;2022-10-16T05:43:44;16.00;85.40
49253;DHT22;35103;47.952;-1.502;2022-10-16T05:46:10;16.00;85.30
49253;DHT22;35103;47.952;-1.502;2022-10-16T05:48:35;16.00;85.30
49253;DHT22;35103;47.952;-1.502;2022-10-16T05:51:06;16.00;85.40
49253;DHT22;35103;47.952;-1.502;2022-10-16T05:53:33;16.00;85.30
49253;DHT22;35103;47.952;-1.502;2022-10-16T05:56:00;16.00;85.40
49253;DHT22;35103;47.952;-1.502;2022-10-16T05:58:28;16.00;85.50
49253;DHT22;35103;47.952;-1.502;2022-10-16T06:00:58;16.00;85.40
49253;DHT22;35103;47.952;-1.502;2022-10-16T06:03:24;16.00;85.40
49253;DHT22;35103;47.952;-1.502;2022-10-16T06:05:51;15.90;85.60
49253;DHT22;35103;47.952;-1.502;2022-10-16T06:08:17;15.90;85.70
49253;DHT22;35103;47.952;-1.502;2022-10-16T06:10:43;15.90;85.80
49253;DHT22;35103;47.952;-1.502;2022-10-16T06:13:10;15.90;85.70
49253;DHT22;35103;47.952;-1.502;2022-10-16T06:15:35;15.90;85.70
49253;DHT22;35103;47.952;-1.502;2022-10-16T06:18:01;15.90;85.70
49253;DHT22;35103;47.952;-1.502;2022-10-16T06:20:26;15.90;86.00
49253;DHT22;35103;47.952;-1.502;2022-10-16T06:22:52;15.90;86.00
49253;DHT22;35103;47.952;-1.502;2022-10-16T06:25:17;15.90;86.00
49253;DHT22;35103;47.952;-1.502;2022-10-16T06:27:43;15.90;85.90
49253;DHT22;35103;47.952;-1.502;2022-10-16T06:30:09;16.00;85.80
49253;DHT22;35103;47.952;-1.502;2022-10-16T06:32:35;16.00;85.80
49253;DHT22;35103;47.952;-1.502;2022-10-16T06:35:00;16.00;85.90
49253;DHT22;35103;47.952;-1.502;2022-10-16T06:37:26;16.00;85.80
49253;DHT22;35103;47.952;-1.502;2022-10-16T06:39:52;16.00;85.90
49253;DHT22;35103;47.952;-1.502;2022-10-16T06:42:18;15.90;85.90
49253;DHT22;35103;47.952;-1.502;2022-10-16T06:44:44;15.90;85.90
49253;DHT22;35103;47.952;-1.502;2022-10-16T06:47:10;16.00;85.90
49253;DHT22;35103;47.952;-1.502;2022-10-16T06:49:36;15.90;85.80
49253;DHT22;35103;47.952;-1.502;2022-10-16T06:52:02;15.90;85.90
49253;DHT22;35103;47.952;-1.502;2022-10-16T06:54:28;15.90;85.90
49253;DHT22;35103;47.952;-1.502;2022-10-16T06:56:53;15.80;85.90
49253;DHT22;35103;47.952;-1.502;2022-10-16T06:59:19;15.80;85.80
49253;DHT22;35103;47.952;-1.502;2022-10-16T07:01:45;15.90;85.70
49253;DHT22;35103;47.952;-1.502;2022-10-16T07:04:11;15.90;85.70
49253;DHT22;35103;47.952;-1.502;2022-10-16T07:06:37;15.90;85.70
49253;DHT22;35103;47.952;-1.502;2022-10-16T07:09:05;15.90;85.70
49253;DHT22;35103;47.952;-1.502;2022-10-16T07:11:30;15.90;85.70
49253;DHT22;35103;47.952;-1.502;2022-10-16T07:13:56;15.90;85.70
49253;DHT22;35103;47.952;-1.502;2022-10-16T07:16:27;15.90;85.60
49253;DHT22;35103;47.952;-1.502;2022-10-16T07:18:57;15.90;85.70
49253;DHT22;35103;47.952;-1.502;2022-10-16T07:21:23;16.00;85.70
49253;DHT22;35103;47.952;-1.502;2022-10-16T07:23:55;16.00;85.70
49253;DHT22;35103;47.952;-1.502;2022-10-16T07:26:22;16.00;85.60
49253;DHT22;35103;47.952;-1.502;2022-10-16T07:28:48;16.00;85.60
49253;DHT22;35103;47.952;-1.502;2022-10-16T07:31:15;16.10;85.60
49253;DHT22;35103;47.952;-1.502;2022-10-16T07:33:41;16.10;85.50
49253;DHT22;35103;47.952;-1.502;2022-10-16T07:36:07;16.10;85.60
49253;DHT22;35103;47.952;-1.502;2022-10-16T07:38:34;16.10;85.50
49253;DHT22;35103;47.952;-1.502;2022-10-16T07:41:02;16.20;85.50
49253;DHT22;35103;47.952;-1.502;2022-10-16T07:43:28;16.20;85.50
49253;DHT22;35103;47.952;-1.502;2022-10-16T07:45:54;16.20;85.50
49253;DHT22;35103;47.952;-1.502;2022-10-16T07:48:21;16.20;85.50
49253;DHT22;35103;47.952;-1.502;2022-10-16T07:50:47;16.20;85.50
49253;DHT22;35103;47.952;-1.502;2022-10-16T07:53:13;16.30;85.50
49253;DHT22;35103;47.952;-1.502;2022-10-16T07:55:39;16.30;85.40
49253;DHT22;35103;47.952;-1.502;2022-10-16T07:58:04;16.30;85.40
49253;DHT22;35103;47.952;-1.502;2022-10-16T08:00:31;16.30;85.40
49253;DHT22;35103;47.952;-1.502;2022-10-16T08:02:57;16.30;85.40
49253;DHT22;35103;47.952;-1.502;2022-10-16T08:05:23;16.40;85.30
49253;DHT22;35103;47.952;-1.502;2022-10-16T08:07:49;16.40;85.20
49253;DHT22;35103;47.952;-1.502;2022-10-16T08:10:18;16.50;85.30
49253;DHT22;35103;47.952;-1.502;2022-10-16T08:12:44;16.50;85.10
49253;DHT22;35103;47.952;-1.502;2022-10-16T08:15:10;16.60;85.10
49253;DHT22;35103;47.952;-1.502;2022-10-16T08:17:36;16.60;85.20
49253;DHT22;35103;47.952;-1.502;2022-10-16T08:20:02;16.70;85.00
49253;DHT22;35103;47.952;-1.502;2022-10-16T08:22:28;16.80;84.80
49253;DHT22;35103;47.952;-1.502;2022-10-16T08:24:53;16.80;85.00
49253;DHT22;35103;47.952;-1.502;2022-10-16T08:27:19;16.80;84.70
49253;DHT22;35103;47.952;-1.502;2022-10-16T08:29:45;16.80;84.70
49253;DHT22;35103;47.952;-1.502;2022-10-16T08:32:11;16.80;84.10
49253;DHT22;35103;47.952;-1.502;2022-10-16T08:34:36;16.80;84.00
49253;DHT22;35103;47.952;-1.502;2022-10-16T08:37:02;16.80;84.10
49253;DHT22;35103;47.952;-1.502;2022-10-16T08:39:27;16.80;83.70
49253;DHT22;35103;47.952;-1.502;2022-10-16T08:49:37;16.80;84.30
49253;DHT22;35103;47.952;-1.502;2022-10-16T08:52:11;16.80;83.80
49253;DHT22;35103;47.952;-1.502;2022-10-16T08:54:42;16.80;83.60
49253;DHT22;35103;47.952;-1.502;2022-10-16T08:57:15;16.80;83.30
49253;DHT22;35103;47.952;-1.502;2022-10-16T08:59:41;16.90;84.00
49253;DHT22;35103;47.952;-1.502;2022-10-16T09:02:37;16.90;84.00
49253;DHT22;35103;47.952;-1.502;2022-10-16T09:08:10;17.00;83.50
49253;DHT22;35103;47.952;-1.502;2022-10-16T09:13:48;17.10;84.10
49253;DHT22;35103;47.952;-1.502;2022-10-16T09:16:23;17.20;83.50
49253;DHT22;35103;47.952;-1.502;2022-10-16T09:21:42;17.30;83.00
49253;DHT22;35103;47.952;-1.502;2022-10-16T09:24:15;17.30;82.40
49253;DHT22;35103;47.952;-1.502;2022-10-16T09:26:41;17.30;82.70
49253;DHT22;35103;47.952;-1.502;2022-10-16T09:29:15;17.30;82.80
49253;DHT22;35103;47.952;-1.502;2022-10-16T09:31:42;17.40;82.50
49253;DHT22;35103;47.952;-1.502;2022-10-16T09:36:44;17.50;82.30
49253;DHT22;35103;47.952;-1.502;2022-10-16T09:39:11;17.40;81.40
49253;DHT22;35103;47.952;-1.502;2022-10-16T09:41:39;17.30;81.10
49253;DHT22;35103;47.952;-1.502;2022-10-16T09:44:24;17.30;81.30
49253;DHT22;35103;47.952;-1.502;2022-10-16T09:47:01;17.20;81.20
49253;DHT22;35103;47.952;-1.502;2022-10-16T09:49:27;17.20;81.90
49253;DHT22;35103;47.952;-1.502;2022-10-16T09:52:11;17.20;81.70
49253;DHT22;35103;47.952;-1.502;2022-10-16T09:54:37;17.20;81.70
49253;DHT22;35103;47.952;-1.502;2022-10-16T09:57:12;17.30;82.30
49253;DHT22;35103;47.952;-1.502;2022-10-16T09:59:49;17.30;82.10
49253;DHT22;35103;47.952;-1.502;2022-10-16T10:02:18;17.40;81.90
49253;DHT22;35103;47.952;-1.502;2022-10-16T10:04:50;17.40;82.20
49253;DHT22;35103;47.952;-1.502;2022-10-16T10:07:39;17.50;82.80
49253;DHT22;35103;47.952;-1.502;2022-10-16T10:10:20;17.70;82.60
49253;DHT22;35103;47.952;-1.502;2022-10-16T10:12:46;17.70;81.90
49253;DHT22;35103;47.952;-1.502;2022-10-16T10:15:13;17.80;81.80
49253;DHT22;35103;47.952;-1.502;2022-10-16T10:17:56;17.70;81.60
49253;DHT22;35103;47.952;-1.502;2022-10-16T10:20:35;17.70;81.20
49253;DHT22;35103;47.952;-1.502;2022-10-16T10:23:15;17.70;81.70
49253;DHT22;35103;47.952;-1.502;2022-10-16T10:26:11;17.70;81.40
49253;DHT22;35103;47.952;-1.502;2022-10-16T10:36:58;17.40;80.90
49253;DHT22;35103;47.952;-1.502;2022-10-16T10:39:40;17.40;80.40
49253;DHT22;35103;47.952;-1.502;2022-10-16T10:42:22;17.40;80.30
49253;DHT22;35103;47.952;-1.502;2022-10-16T10:44:54;17.40;80.60
49253;DHT22;35103;47.952;-1.502;2022-10-16T11:01:12;17.20;81.20
49253;DHT22;35103;47.952;-1.502;2022-10-16T11:07:21;17.30;81.30
49253;DHT22;35103;47.952;-1.502;2022-10-16T11:09:55;17.30;81.20
49253;DHT22;35103;47.952;-1.502;2022-10-16T11:12:42;17.30;81.20
49253;DHT22;35103;47.952;-1.502;2022-10-16T11:15:31;17.20;81.60
49253;DHT22;35103;47.952;-1.502;2022-10-16T11:18:08;17.30;81.90
49253;DHT22;35103;47.952;-1.502;2022-10-16T11:23:43;17.30;82.20
49253;DHT22;35103;47.952;-1.502;2022-10-16T11:26:23;17.40;82.40
49253;DHT22;35103;47.952;-1.502;2022-10-16T11:28:52;17.50;82.70
49253;DHT22;35103;47.952;-1.502;2022-10-16T11:36:47;17.80;82.80
49253;DHT22;35103;47.952;-1.502;2022-10-16T11:44:38;18.00;82.30
49253;DHT22;35103;47.952;-1.502;2022-10-16T11:49:32;18.10;82.10
49253;DHT22;35103;47.952;-1.502;2022-10-16T11:52:17;18.10;81.90
49253;DHT22;35103;47.952;-1.502;2022-10-16T11:57:16;18.10;82.30
49253;DHT22;35103;47.952;-1.502;2022-10-16T11:59:57;18.20;82.40
49253;DHT22;35103;47.952;-1.502;2022-10-16T12:02:50;18.30;82.40
49253;DHT22;35103;47.952;-1.502;2022-10-16T12:08:09;18.40;82.20
49253;DHT22;35103;47.952;-1.502;2022-10-16T12:10:35;18.50;82.20
49253;DHT22;35103;47.952;-1.502;2022-10-16T12:13:01;18.60;82.40
49253;DHT22;35103;47.952;-1.502;2022-10-16T12:15:28;18.70;82.40
49253;DHT22;35103;47.952;-1.502;2022-10-16T12:17:54;18.80;82.10
49253;DHT22;35103;47.952;-1.502;2022-10-16T12:20:27;18.80;82.30
49253;DHT22;35103;47.952;-1.502;2022-10-16T12:23:03;18.80;81.70
49253;DHT22;35103;47.952;-1.502;2022-10-16T12:25:30;18.80;81.80
49253;DHT22;35103;47.952;-1.502;2022-10-16T12:28:26;18.80;82.00
49253;DHT22;35103;47.952;-1.502;2022-10-16T12:30:56;18.80;82.00
49253;DHT22;35103;47.952;-1.502;2022-10-16T12:33:27;18.80;82.00
49253;DHT22;35103;47.952;-1.502;2022-10-16T12:35:54;18.90;82.50
49253;DHT22;35103;47.952;-1.502;2022-10-16T12:38:25;19.10;82.10
49253;DHT22;35103;47.952;-1.502;2022-10-16T12:40:58;19.20;82.30
49253;DHT22;35103;47.952;-1.502;2022-10-16T12:43:28;19.30;82.50
49253;DHT22;35103;47.952;-1.502;2022-10-16T12:46:23;19.40;82.20
49253;DHT22;35103;47.952;-1.502;2022-10-16T12:48:49;19.70;82.40
49253;DHT22;35103;47.952;-1.502;2022-10-16T12:54:04;20.20;80.50
49253;DHT22;35103;47.952;-1.502;2022-10-16T13:08:13;20.30;79.10
49253;DHT22;35103;47.952;-1.502;2022-10-16T13:13:42;20.10;79.90
49253;DHT22;35103;47.952;-1.502;2022-10-16T13:16:33;20.20;80.20
49253;DHT22;35103;47.952;-1.502;2022-10-16T13:27:52;20.80;79.30
49253;DHT22;35103;47.952;-1.502;2022-10-16T13:30:25;20.80;79.40
49253;DHT22;35103;47.952;-1.502;2022-10-16T13:33:01;20.80;78.70
49253;DHT22;35103;47.952;-1.502;2022-10-16T13:35:30;20.90;79.10
49253;DHT22;35103;47.952;-1.502;2022-10-16T13:40:37;21.10;79.20
49253;DHT22;35103;47.952;-1.502;2022-10-16T13:43:12;21.20;78.80
49253;DHT22;35103;47.952;-1.502;2022-10-16T13:45:38;21.30;79.30
49253;DHT22;35103;47.952;-1.502;2022-10-16T13:48:06;21.50;79.50
49253;DHT22;35103;47.952;-1.502;2022-10-16T13:50:34;21.70;78.30
49253;DHT22;35103;47.952;-1.502;2022-10-16T13:53:09;21.70;77.60
49253;DHT22;35103;47.952;-1.502;2022-10-16T13:55:38;21.80;78.40
49253;DHT22;35103;47.952;-1.502;2022-10-16T13:58:13;21.90;77.70
49253;DHT22;35103;47.952;-1.502;2022-10-16T14:00:39;22.10;78.50
49253;DHT22;35103;47.952;-1.502;2022-10-16T14:03:11;22.30;76.90
49253;DHT22;35103;47.952;-1.502;2022-10-16T14:05:44;22.20;76.70
49253;DHT22;35103;47.952;-1.502;2022-10-16T14:08:12;22.30;78.20
49253;DHT22;35103;47.952;-1.502;2022-10-16T14:10:38;22.40;77.00
49253;DHT22;35103;47.952;-1.502;2022-10-16T14:13:08;22.60;76.90
49253;DHT22;35103;47.952;-1.502;2022-10-16T14:15:39;22.70;76.80
49253;DHT22;35103;47.952;-1.502;2022-10-16T14:18:05;22.80;76.00
49253;DHT22;35103;47.952;-1.502;2022-10-16T14:20:33;22.70;74.20
49253;DHT22;35103;47.952;-1.502;2022-10-16T14:23:29;22.60;74.50
49253;DHT22;35103;47.952;-1.502;2022-10-16T14:28:33;22.40;75.20
49253;DHT22;35103;47.952;-1.502;2022-10-16T14:31:00;22.40;75.40
49253;DHT22;35103;47.952;-1.502;2022-10-16T14:38:47;22.30;75.90
49253;DHT22;35103;47.952;-1.502;2022-10-16T14:41:14;22.30;76.10
49253;DHT22;35103;47.952;-1.502;2022-10-16T14:43:42;22.30;76.20
49253;DHT22;35103;47.952;-1.502;2022-10-16T14:46:17;22.40;76.70
49253;DHT22;35103;47.952;-1.502;2022-10-16T14:48:47;22.60;76.50
49253;DHT22;35103;47.952;-1.502;2022-10-16T14:51:18;22.80;76.90
49253;DHT22;35103;47.952;-1.502;2022-10-16T14:53:44;23.00;75.10
49253;DHT22;35103;47.952;-1.502;2022-10-16T14:56:21;23.30;76.00
49253;DHT22;35103;47.952;-1.502;2022-10-16T14:58:49;23.30;73.90
49253;DHT22;35103;47.952;-1.502;2022-10-16T15:01:15;23.30;74.60
49253;DHT22;35103;47.952;-1.502;2022-10-16T15:03:40;23.50;74.30
49253;DHT22;35103;47.952;-1.502;2022-10-16T15:06:11;23.60;74.00
49253;DHT22;35103;47.952;-1.502;2022-10-16T15:08:36;23.50;74.00
49253;DHT22;35103;47.952;-1.502;2022-10-16T15:11:02;23.50;73.00
49253;DHT22;35103;47.952;-1.502;2022-10-16T15:13:28;23.50;74.20
49253;DHT22;35103;47.952;-1.502;2022-10-16T15:15:53;24.00;74.50
49253;DHT22;35103;47.952;-1.502;2022-10-16T15:18:19;24.70;73.00
49253;DHT22;35103;47.952;-1.502;2022-10-16T15:20:45;25.40;72.40
49253;DHT22;35103;47.952;-1.502;2022-10-16T15:23:19;25.80;69.30
49253;DHT22;35103;47.952;-1.502;2022-10-16T15:28:11;26.00;67.20
49253;DHT22;35103;47.952;-1.502;2022-10-16T15:30:37;26.10;67.80
49253;DHT22;35103;47.952;-1.502;2022-10-16T15:33:05;26.30;65.50
49253;DHT22;35103;47.952;-1.502;2022-10-16T15:35:31;26.00;66.30
49253;DHT22;35103;47.952;-1.502;2022-10-16T15:37:57;26.00;65.50
49253;DHT22;35103;47.952;-1.502;2022-10-16T15:40:23;25.90;66.50
49253;DHT22;35103;47.952;-1.502;2022-10-16T15:42:49;26.40;66.80
49253;DHT22;35103;47.952;-1.502;2022-10-16T15:45:16;26.60;63.50
49253;DHT22;35103;47.952;-1.502;2022-10-16T15:47:42;26.20;63.20
49253;DHT22;35103;47.952;-1.502;2022-10-16T15:50:10;25.40;64.00
49253;DHT22;35103;47.952;-1.502;2022-10-16T15:52:35;24.80;65.80
49253;DHT22;35103;47.952;-1.502;2022-10-16T15:55:01;24.40;67.10
49253;DHT22;35103;47.952;-1.502;2022-10-16T15:57:28;24.20;67.90
49253;DHT22;35103;47.952;-1.502;2022-10-16T15:59:54;23.90;68.50
49253;DHT22;35103;47.952;-1.502;2022-10-16T16:02:19;23.80;69.00
49253;DHT22;35103;47.952;-1.502;2022-10-16T16:04:45;23.60;69.30
49253;DHT22;35103;47.952;-1.502;2022-10-16T16:07:11;23.40;69.60
49253;DHT22;35103;47.952;-1.502;2022-10-16T16:09:36;23.20;70.10
49253;DHT22;35103;47.952;-1.502;2022-10-16T16:12:02;23.00;70.60
49253;DHT22;35103;47.952;-1.502;2022-10-16T16:14:28;23.00;70.80
49253;DHT22;35103;47.952;-1.502;2022-10-16T16:16:54;22.90;71.00
49253;DHT22;35103;47.952;-1.502;2022-10-16T16:19:20;22.80;71.10
49253;DHT22;35103;47.952;-1.502;2022-10-16T16:21:46;22.80;71.30
49253;DHT22;35103;47.952;-1.502;2022-10-16T16:24:11;22.70;71.40
49253;DHT22;35103;47.952;-1.502;2022-10-16T16:26:37;22.60;71.60
49253;DHT22;35103;47.952;-1.502;2022-10-16T16:29:03;22.60;71.70
49253;DHT22;35103;47.952;-1.502;2022-10-16T16:31:31;22.60;71.90
49253;DHT22;35103;47.952;-1.502;2022-10-16T16:33:57;22.50;71.90
49253;DHT22;35103;47.952;-1.502;2022-10-16T16:36:24;22.50;72.10
49253;DHT22;35103;47.952;-1.502;2022-10-16T16:38:50;22.40;72.20
49253;DHT22;35103;47.952;-1.502;2022-10-16T16:41:21;22.40;72.10
49253;DHT22;35103;47.952;-1.502;2022-10-16T16:43:47;22.30;71.90
49253;DHT22;35103;47.952;-1.502;2022-10-16T16:46:14;22.30;71.80
49253;DHT22;35103;47.952;-1.502;2022-10-16T16:48:40;22.30;71.80
49253;DHT22;35103;47.952;-1.502;2022-10-16T16:51:16;22.20;71.60
49253;DHT22;35103;47.952;-1.502;2022-10-16T16:53:46;22.10;71.60
49253;DHT22;35103;47.952;-1.502;2022-10-16T16:56:11;22.00;71.50
49253;DHT22;35103;47.952;-1.502;2022-10-16T16:58:37;21.90;71.50
49253;DHT22;35103;47.952;-1.502;2022-10-16T17:01:05;21.80;71.70
49253;DHT22;35103;47.952;-1.502;2022-10-16T17:03:32;21.70;71.70
49253;DHT22;35103;47.952;-1.502;2022-10-16T17:06:07;21.60;71.80
49253;DHT22;35103;47.952;-1.502;2022-10-16T17:08:37;21.50;71.80
49253;DHT22;35103;47.952;-1.502;2022-10-16T17:11:03;21.50;72.00
49253;DHT22;35103;47.952;-1.502;2022-10-16T17:13:32;21.40;72.10
49253;DHT22;35103;47.952;-1.502;2022-10-16T17:16:00;21.30;72.20
49253;DHT22;35103;47.952;-1.502;2022-10-16T17:18:26;21.20;72.30
49253;DHT22;35103;47.952;-1.502;2022-10-16T17:20:51;21.20;72.50
49253;DHT22;35103;47.952;-1.502;2022-10-16T17:23:18;21.10;72.60
49253;DHT22;35103;47.952;-1.502;2022-10-16T17:25:44;21.00;72.80
49253;DHT22;35103;47.952;-1.502;2022-10-16T17:28:11;21.00;72.90